JES3017 SASA-SABE
Flight info
| Callsign | JES3017 |
|---|---|
| Flight time | 0h 46m |
| Altitude | 37000 |
| Route | MUBOK2G PONPI UT681 PUBER UL550 ROS UT672 MULTA UW24 SNT SNT8Q |
| Aircraft | A320/M-SDE3FGHIRWY/LB1 |
Departure
| Time | 2026-05-05 17:17 |
|---|---|
| Airport | Martín Miguel de Güemes International Airport (SASA) |
Arrival
| Time | 2026-05-05 18:04 |
|---|---|
| Airport | Aeroparque Jorge Newbery (SABE) |
| Time | Latitude | Longitude | Altitude | Speed | Heading |
|---|---|---|---|---|---|
| 2026-05-05 16:45 | -24.84464 | -65.47948 | 4017 ft | 0 kts | 20° |
| 2026-05-05 17:11 | -24.84483 | -65.47955 | 4017 ft | 4 kts | 348° |
| 2026-05-05 17:11 | -24.84496 | -65.47942 | 4017 ft | 4 kts | 292° |
| 2026-05-05 17:11 | -24.84506 | -65.47915 | 4017 ft | 4 kts | 292° |
| 2026-05-05 17:12 | -24.84509 | -65.47906 | 4017 ft | 0 kts | 292° |
| 2026-05-05 17:14 | -24.84509 | -65.47907 | 4017 ft | 0 kts | 292° |
| 2026-05-05 17:14 | -24.84504 | -65.47920 | 4017 ft | 4 kts | 292° |
| 2026-05-05 17:14 | -24.84499 | -65.47960 | 4017 ft | 6 kts | 261° |
| 2026-05-05 17:14 | -24.84512 | -65.48006 | 4017 ft | 7 kts | 251° |
| 2026-05-05 17:15 | -24.84528 | -65.48056 | 4017 ft | 7 kts | 251° |
| 2026-05-05 17:15 | -24.84544 | -65.48112 | 4017 ft | 8 kts | 252° |
| 2026-05-05 17:15 | -24.84562 | -65.48173 | 4017 ft | 9 kts | 252° |
| 2026-05-05 17:15 | -24.84581 | -65.48238 | 4017 ft | 9 kts | 252° |
| 2026-05-05 17:16 | -24.84604 | -65.48309 | 4017 ft | 10 kts | 244° |
| 2026-05-05 17:16 | -24.84652 | -65.48370 | 4017 ft | 11 kts | 224° |
| 2026-05-05 17:16 | -24.84715 | -65.48428 | 4017 ft | 16 kts | 208° |
| 2026-05-05 17:16 | -24.84985 | -65.48494 | 4018 ft | 76 kts | 191° |
| 2026-05-05 17:17 | -24.85727 | -65.48652 | 4018 ft | 138 kts | 191° |
| 2026-05-05 17:17 | -24.86839 | -65.48883 | 4103 ft | 179 kts | 188° |
| 2026-05-05 17:17 | -24.88058 | -65.49128 | 4891 ft | 178 kts | 189° |
| 2026-05-05 17:17 | -24.89293 | -65.49400 | 5551 ft | 186 kts | 191° |
| 2026-05-05 17:18 | -24.90620 | -65.49696 | 5779 ft | 205 kts | 191° |
| 2026-05-05 17:18 | -24.92093 | -65.50024 | 5931 ft | 227 kts | 191° |
| 2026-05-05 17:18 | -24.93723 | -65.50386 | 6152 ft | 248 kts | 191° |
| 2026-05-05 17:18 | -24.95429 | -65.50764 | 6782 ft | 252 kts | 191° |
| 2026-05-05 17:19 | -24.97170 | -65.51055 | 7440 ft | 254 kts | 177° |
| 2026-05-05 17:19 | -24.98960 | -65.50691 | 7752 ft | 273 kts | 165° |
| 2026-05-05 17:19 | -25.00867 | -65.50188 | 8137 ft | 287 kts | 167° |
| 2026-05-05 17:19 | -25.02833 | -65.49696 | 8756 ft | 292 kts | 167° |
| 2026-05-05 17:20 | -25.04825 | -65.49208 | 9393 ft | 295 kts | 167° |
| 2026-05-05 17:20 | -25.06836 | -65.48718 | 10034 ft | 297 kts | 168° |
| 2026-05-05 17:20 | -25.08900 | -65.48215 | 10303 ft | 314 kts | 168° |
| 2026-05-05 17:20 | -25.11101 | -65.47675 | 10423 ft | 334 kts | 168° |
| 2026-05-05 17:21 | -25.13979 | -65.46963 | 10632 ft | 353 kts | 168° |
| 2026-05-05 17:21 | -25.18841 | -65.45753 | 11549 ft | 361 kts | 168° |
| 2026-05-05 17:21 | -25.23780 | -65.44516 | 12580 ft | 367 kts | 168° |
| 2026-05-05 17:22 | -25.33922 | -65.41981 | 14554 ft | 379 kts | 169° |
| 2026-05-05 17:22 | -25.37408 | -65.41112 | 15185 ft | 383 kts | 168° |
| 2026-05-05 17:22 | -25.42638 | -65.39801 | 16142 ft | 388 kts | 169° |
| 2026-05-05 17:22 | -25.47934 | -65.38476 | 17106 ft | 393 kts | 169° |
| 2026-05-05 17:23 | -25.53300 | -65.37131 | 18088 ft | 398 kts | 169° |
| 2026-05-05 17:23 | -25.58737 | -65.35765 | 18987 ft | 403 kts | 169° |
| 2026-05-05 17:23 | -25.64250 | -65.34386 | 19838 ft | 408 kts | 170° |
| 2026-05-05 17:23 | -25.69828 | -65.32989 | 20650 ft | 414 kts | 171° |
| 2026-05-05 17:24 | -25.75481 | -65.31548 | 21458 ft | 420 kts | 168° |
| 2026-05-05 17:24 | -25.81090 | -65.29511 | 22238 ft | 428 kts | 165° |
| 2026-05-05 17:24 | -25.86794 | -65.27412 | 23089 ft | 433 kts | 165° |
| 2026-05-05 17:24 | -25.92528 | -65.25302 | 23863 ft | 436 kts | 165° |
| 2026-05-05 17:25 | -25.98295 | -65.23180 | 24479 ft | 441 kts | 166° |
| 2026-05-05 17:25 | -26.02255 | -65.21721 | 24899 ft | 444 kts | 166° |
| 2026-05-05 17:25 | -26.10074 | -65.18832 | 25683 ft | 451 kts | 166° |
| 2026-05-05 17:25 | -26.16064 | -65.16624 | 26280 ft | 456 kts | 166° |
| 2026-05-05 17:26 | -26.22119 | -65.14384 | 26885 ft | 461 kts | 166° |
| 2026-05-05 17:26 | -26.28240 | -65.12111 | 27518 ft | 466 kts | 166° |
| 2026-05-05 17:26 | -26.34431 | -65.09816 | 28158 ft | 471 kts | 167° |
| 2026-05-05 17:26 | -26.40629 | -65.07514 | 29103 ft | 468 kts | 167° |
| 2026-05-05 17:27 | -26.45929 | -65.05542 | 29856 ft | 467 kts | 167° |
| 2026-05-05 17:27 | -26.51236 | -65.03558 | 30500 ft | 467 kts | 168° |
| 2026-05-05 17:27 | -26.57386 | -65.01265 | 31325 ft | 465 kts | 168° |
| 2026-05-05 17:27 | -26.63486 | -64.98992 | 32176 ft | 461 kts | 168° |
| 2026-05-05 17:28 | -26.69598 | -64.96717 | 32792 ft | 464 kts | 169° |
| 2026-05-05 17:28 | -26.75737 | -64.94428 | 33496 ft | 465 kts | 170° |
| 2026-05-05 17:28 | -26.81839 | -64.92134 | 34271 ft | 461 kts | 170° |
| 2026-05-05 17:28 | -26.87922 | -64.89858 | 34859 ft | 461 kts | 171° |
| 2026-05-05 17:29 | -26.94005 | -64.87585 | 35397 ft | 461 kts | 171° |
| 2026-05-05 17:29 | -27.00085 | -64.85303 | 35924 ft | 461 kts | 171° |
| 2026-05-05 17:29 | -27.06152 | -64.83016 | 36444 ft | 460 kts | 172° |
| 2026-05-05 17:29 | -27.12229 | -64.80735 | 36860 ft | 462 kts | 172° |
| 2026-05-05 17:30 | -27.18400 | -64.78429 | 36863 ft | 472 kts | 172° |
| 2026-05-05 17:30 | -27.30915 | -64.73699 | 36870 ft | 475 kts | 172° |
| 2026-05-05 17:31 | -27.43438 | -64.68957 | 36879 ft | 474 kts | 172° |
| 2026-05-05 17:31 | -27.55577 | -64.63660 | 36888 ft | 493 kts | 158° |
| 2026-05-05 17:32 | -27.67358 | -64.55710 | 36885 ft | 493 kts | 159° |
| 2026-05-05 17:32 | -27.79152 | -64.47797 | 36904 ft | 494 kts | 159° |
| 2026-05-05 17:33 | -27.90946 | -64.39828 | 36904 ft | 494 kts | 159° |
| 2026-05-05 17:33 | -28.02734 | -64.31848 | 36886 ft | 494 kts | 159° |
| 2026-05-05 17:34 | -28.14606 | -64.23798 | 36865 ft | 494 kts | 159° |
| 2026-05-05 17:34 | -28.26335 | -64.15837 | 36867 ft | 494 kts | 159° |
| 2026-05-05 17:35 | -28.38204 | -64.07751 | 36860 ft | 495 kts | 159° |
| 2026-05-05 17:35 | -28.50014 | -63.99675 | 36859 ft | 495 kts | 159° |
| 2026-05-05 17:36 | -28.61828 | -63.91594 | 36859 ft | 495 kts | 159° |
| 2026-05-05 17:36 | -28.73634 | -63.83485 | 36864 ft | 496 kts | 159° |
| 2026-05-05 17:37 | -28.85445 | -63.75346 | 36870 ft | 496 kts | 159° |
| 2026-05-05 17:37 | -29.01170 | -63.64378 | 36869 ft | 496 kts | 159° |
| 2026-05-05 17:38 | -29.24723 | -63.47890 | 36878 ft | 496 kts | 159° |
| 2026-05-05 17:38 | -29.48296 | -63.31322 | 36872 ft | 497 kts | 159° |
| 2026-05-05 17:39 | -29.71815 | -63.14609 | 36881 ft | 498 kts | 159° |
| 2026-05-05 17:39 | -29.95370 | -62.97762 | 36895 ft | 498 kts | 160° |
| 2026-05-05 17:40 | -30.18925 | -62.80839 | 36902 ft | 498 kts | 159° |
| 2026-05-05 17:40 | -30.42456 | -62.63823 | 36918 ft | 498 kts | 159° |
| 2026-05-05 17:41 | -30.65918 | -62.46790 | 36919 ft | 497 kts | 159° |
| 2026-05-05 17:41 | -30.89329 | -62.29721 | 36927 ft | 496 kts | 159° |
| 2026-05-05 17:42 | -31.12840 | -62.12594 | 36931 ft | 494 kts | 158° |
| 2026-05-05 17:42 | -31.36074 | -61.95429 | 36927 ft | 493 kts | 158° |
| 2026-05-05 17:43 | -31.59187 | -61.78166 | 36936 ft | 492 kts | 157° |
| 2026-05-05 17:43 | -31.82223 | -61.60883 | 36941 ft | 490 kts | 156° |
| 2026-05-05 17:44 | -32.05153 | -61.43548 | 36932 ft | 489 kts | 156° |
| 2026-05-05 17:44 | -32.27966 | -61.26200 | 36944 ft | 487 kts | 156° |
| 2026-05-05 17:45 | -32.50761 | -61.08793 | 36944 ft | 487 kts | 155° |
| 2026-05-05 17:45 | -32.70799 | -60.93386 | 36953 ft | 488 kts | 155° |
| 2026-05-05 17:46 | -32.88938 | -60.79340 | 36968 ft | 488 kts | 155° |
| 2026-05-05 17:46 | -33.00518 | -60.71103 | 36965 ft | 483 kts | 159° |
| 2026-05-05 17:47 | -33.12239 | -60.63172 | 36960 ft | 485 kts | 158° |
| 2026-05-05 17:47 | -33.23900 | -60.55046 | 36968 ft | 485 kts | 158° |
| 2026-05-05 17:48 | -33.35542 | -60.46954 | 36968 ft | 484 kts | 158° |
| 2026-05-05 17:48 | -33.47178 | -60.38832 | 36319 ft | 483 kts | 157° |
| 2026-05-05 17:48 | -33.53025 | -60.34731 | 34805 ft | 491 kts | 157° |
| 2026-05-05 17:49 | -33.59035 | -60.30534 | 32816 ft | 507 kts | 157° |
| 2026-05-05 17:49 | -33.65194 | -60.26229 | 30967 ft | 515 kts | 156° |
| 2026-05-05 17:49 | -33.71326 | -60.21912 | 29597 ft | 510 kts | 155° |
| 2026-05-05 17:49 | -33.77514 | -60.17537 | 28064 ft | 504 kts | 155° |
| 2026-05-05 17:50 | -33.83298 | -60.12873 | 26753 ft | 502 kts | 141° |
| 2026-05-05 17:50 | -33.87675 | -60.06429 | 25643 ft | 496 kts | 127° |
| 2026-05-05 17:50 | -33.91494 | -59.99579 | 24433 ft | 488 kts | 126° |
| 2026-05-05 17:50 | -33.95231 | -59.92873 | 23289 ft | 478 kts | 126° |
| 2026-05-05 17:51 | -33.98906 | -59.86268 | 22017 ft | 469 kts | 126° |
| 2026-05-05 17:51 | -34.02496 | -59.79807 | 20753 ft | 461 kts | 125° |
| 2026-05-05 17:51 | -34.06013 | -59.73470 | 19744 ft | 449 kts | 125° |
| 2026-05-05 17:51 | -34.09458 | -59.67257 | 18687 ft | 443 kts | 124° |
| 2026-05-05 17:52 | -34.12855 | -59.61125 | 17569 ft | 437 kts | 124° |
| 2026-05-05 17:52 | -34.16195 | -59.55080 | 16507 ft | 428 kts | 124° |
| 2026-05-05 17:52 | -34.19471 | -59.49140 | 15446 ft | 419 kts | 124° |
| 2026-05-05 17:52 | -34.22250 | -59.42999 | 14400 ft | 412 kts | 108° |
| 2026-05-05 17:53 | -34.23080 | -59.38562 | 13641 ft | 408 kts | 100° |
| 2026-05-05 17:53 | -34.24426 | -59.29614 | 12054 ft | 399 kts | 100° |
| 2026-05-05 17:53 | -34.25426 | -59.23060 | 10917 ft | 393 kts | 101° |
| 2026-05-05 17:53 | -34.26399 | -59.16686 | 10332 ft | 370 kts | 101° |
| 2026-05-05 17:54 | -34.27269 | -59.10944 | 10017 ft | 327 kts | 101° |
| 2026-05-05 17:54 | -34.27898 | -59.06773 | 9586 ft | 321 kts | 100° |
| 2026-05-05 17:54 | -34.28161 | -59.05020 | 9384 ft | 321 kts | 100° |
| 2026-05-05 17:54 | -34.28559 | -59.02358 | 9071 ft | 321 kts | 100° |
| 2026-05-05 17:55 | -34.28964 | -58.99652 | 8697 ft | 321 kts | 99° |
| 2026-05-05 17:55 | -34.29360 | -58.96993 | 8288 ft | 323 kts | 99° |
| 2026-05-05 17:55 | -34.29754 | -58.94339 | 8028 ft | 319 kts | 99° |
| 2026-05-05 17:55 | -34.30145 | -58.91699 | 7681 ft | 319 kts | 99° |
| 2026-05-05 17:56 | -34.30539 | -58.89054 | 7345 ft | 319 kts | 98° |
| 2026-05-05 17:56 | -34.30933 | -58.86424 | 7028 ft | 318 kts | 98° |
| 2026-05-05 17:56 | -34.31193 | -58.84678 | 6824 ft | 317 kts | 98° |
| 2026-05-05 17:56 | -34.31517 | -58.82490 | 6576 ft | 316 kts | 98° |
| 2026-05-05 17:57 | -34.31906 | -58.79871 | 6255 ft | 315 kts | 98° |
| 2026-05-05 17:57 | -34.32414 | -58.77299 | 5927 ft | 315 kts | 110° |
| 2026-05-05 17:57 | -34.33477 | -58.75009 | 5600 ft | 313 kts | 130° |
| 2026-05-05 17:57 | -34.34951 | -58.73094 | 5289 ft | 309 kts | 136° |
| 2026-05-05 17:58 | -34.36436 | -58.71255 | 4967 ft | 300 kts | 136° |
| 2026-05-05 17:58 | -34.37861 | -58.69485 | 4646 ft | 288 kts | 136° |
| 2026-05-05 17:58 | -34.39236 | -58.67772 | 4291 ft | 279 kts | 136° |
| 2026-05-05 17:58 | -34.40576 | -58.66102 | 3941 ft | 274 kts | 135° |
| 2026-05-05 17:59 | -34.41894 | -58.64460 | 3610 ft | 269 kts | 135° |
| 2026-05-05 17:59 | -34.43183 | -58.62856 | 3266 ft | 261 kts | 134° |
| 2026-05-05 17:59 | -34.44426 | -58.61309 | 3012 ft | 249 kts | 134° |
| 2026-05-05 17:59 | -34.45566 | -58.59856 | 2969 ft | 227 kts | 130° |
| 2026-05-05 18:00 | -34.46514 | -58.58374 | 2957 ft | 219 kts | 125° |
| 2026-05-05 18:00 | -34.47367 | -58.56877 | 2766 ft | 211 kts | 124° |
| 2026-05-05 18:00 | -34.48162 | -58.55456 | 2506 ft | 196 kts | 124° |
| 2026-05-05 18:00 | -34.48905 | -58.54129 | 2258 ft | 184 kts | 124° |
| 2026-05-05 18:01 | -34.49599 | -58.52889 | 2039 ft | 172 kts | 123° |
| 2026-05-05 18:01 | -34.50236 | -58.51752 | 1833 ft | 158 kts | 123° |
| 2026-05-05 18:01 | -34.50838 | -58.50676 | 1625 ft | 152 kts | 124° |
| 2026-05-05 18:01 | -34.51427 | -58.49624 | 1450 ft | 150 kts | 123° |
| 2026-05-05 18:02 | -34.52007 | -58.48586 | 1253 ft | 148 kts | 123° |
| 2026-05-05 18:02 | -34.52580 | -58.47563 | 1060 ft | 146 kts | 123° |
| 2026-05-05 18:02 | -34.53146 | -58.46549 | 851 ft | 145 kts | 123° |
| 2026-05-05 18:02 | -34.53708 | -58.45538 | 665 ft | 144 kts | 122° |
| 2026-05-05 18:03 | -34.54266 | -58.44535 | 459 ft | 143 kts | 123° |
| 2026-05-05 18:03 | -34.54831 | -58.43547 | 252 ft | 143 kts | 123° |
| 2026-05-05 18:03 | -34.55387 | -58.42544 | 60 ft | 144 kts | 122° |
| 2026-05-05 18:03 | -34.55891 | -58.41637 | 24 ft | 98 kts | 124° |
| 2026-05-05 18:04 | -34.56150 | -58.41175 | 27 ft | 40 kts | 124° |
| 2026-05-05 18:04 | -34.56228 | -58.40976 | 26 ft | 21 kts | 103° |
| 2026-05-05 18:04 | -34.56236 | -58.40829 | 27 ft | 14 kts | 92° |
| 2026-05-05 18:04 | -34.56206 | -58.40777 | 25 ft | 7 kts | 342° |
| 2026-05-05 18:05 | -34.56174 | -58.40831 | 28 ft | 9 kts | 292° |
| 2026-05-05 18:05 | -34.56159 | -58.40904 | 27 ft | 11 kts | 286° |
| 2026-05-05 18:05 | -34.56120 | -58.40988 | 28 ft | 13 kts | 307° |
| 2026-05-05 18:05 | -34.56058 | -58.41087 | 25 ft | 16 kts | 307° |
| 2026-05-05 18:06 | -34.55985 | -58.41202 | 30 ft | 19 kts | 307° |
| 2026-05-05 18:06 | -34.55932 | -58.41290 | 26 ft | 20 kts | 303° |
| 2026-05-05 18:06 | -34.55838 | -58.41507 | 26 ft | 23 kts | 297° |
| 2026-05-05 18:06 | -34.55782 | -58.41586 | 25 ft | 12 kts | 360° |
| 2026-05-05 18:07 | -34.55710 | -58.41620 | 29 ft | 9 kts | 308° |
| 2026-05-05 18:07 | -34.55666 | -58.41661 | 27 ft | 7 kts | 14° |
| 2026-05-05 18:07 | -34.55635 | -58.41637 | 27 ft | 4 kts | 34° |
| 2026-05-05 18:07 | -34.55627 | -58.41631 | 25 ft | 0 kts | 33° |